createdAt,value
2023-02-22T00:01:23.154Z,6.31
2023-02-22T00:03:53.521Z,6.30
2023-02-22T00:06:25.050Z,6.27
2023-02-22T00:08:53.810Z,6.25
2023-02-22T00:11:22.615Z,6.23
2023-02-22T00:13:51.492Z,6.22
2023-02-22T00:16:21.807Z,6.20
2023-02-22T00:18:51.123Z,6.19
2023-02-22T00:21:21.029Z,6.16
2023-02-22T00:23:50.378Z,6.13
2023-02-22T00:26:21.049Z,6.11
2023-02-22T00:28:50.909Z,6.10
2023-02-22T00:31:20.371Z,6.08
2023-02-22T00:33:51.139Z,6.07
2023-02-22T00:36:21.256Z,6.05
2023-02-22T00:38:49.883Z,6.05
2023-02-22T00:41:18.802Z,6.04
2023-02-22T00:43:48.988Z,6.02
2023-02-22T00:46:17.751Z,5.99
2023-02-22T00:48:47.285Z,5.97
2023-02-22T00:51:15.968Z,5.94
2023-02-22T00:53:45.929Z,5.92
2023-02-22T00:56:14.460Z,5.89
2023-02-22T00:58:42.926Z,5.85
2023-02-22T01:01:11.370Z,5.83
2023-02-22T01:03:41.403Z,5.80
2023-02-22T01:06:12.490Z,5.80
2023-02-22T01:08:46.524Z,5.77
2023-02-22T01:11:16.660Z,5.74
2023-02-22T01:13:45.506Z,5.71
2023-02-22T01:16:14.082Z,5.70
2023-02-22T01:18:42.645Z,5.66
2023-02-22T01:21:11.880Z,5.65
2023-02-22T01:23:42.098Z,5.63
2023-02-22T01:26:12.576Z,5.61
2023-02-22T01:28:40.962Z,5.60
2023-02-22T01:31:09.496Z,5.58
2023-02-22T01:33:37.940Z,5.58
2023-02-22T01:36:17.017Z,5.55
2023-02-22T01:38:45.862Z,5.54
2023-02-22T01:41:18.621Z,5.51
2023-02-22T01:43:47.426Z,5.50
2023-02-22T01:46:23.478Z,5.48
2023-02-22T01:48:55.745Z,5.46
2023-02-22T01:51:27.925Z,5.43
2023-02-22T01:54:10.576Z,5.40
2023-02-22T01:56:50.505Z,5.39
2023-02-22T01:59:23.735Z,5.36
2023-02-22T02:01:52.597Z,5.35
2023-02-22T02:04:25.561Z,5.36
2023-02-22T02:07:01.171Z,5.35
2023-02-22T02:09:37.064Z,5.34
2023-02-22T02:12:11.045Z,5.32
2023-02-22T02:14:40.460Z,5.29
2023-02-22T02:17:10.902Z,5.28
2023-02-22T02:19:52.013Z,5.28
2023-02-22T02:22:30.905Z,5.26
2023-02-22T02:25:33.772Z,5.24
2023-02-22T02:28:56.308Z,5.22
2023-02-22T02:32:04.172Z,5.21
2023-02-22T02:34:36.710Z,5.19
2023-02-22T02:37:13.162Z,5.16
2023-02-22T02:39:50.963Z,5.15
2023-02-22T02:42:24.620Z,5.14
2023-02-22T02:44:57.516Z,5.12
2023-02-22T02:47:31.136Z,5.09
2023-02-22T02:50:04.360Z,5.08
2023-02-22T02:52:35.302Z,5.07
2023-02-22T02:55:07.962Z,5.06
2023-02-22T02:57:36.376Z,5.03
2023-02-22T03:00:10.942Z,5.04
2023-02-22T03:02:55.899Z,5.02
2023-02-22T03:05:44.868Z,4.98
2023-02-22T03:08:19.819Z,4.95
2023-02-22T03:11:01.740Z,4.94
2023-02-22T03:13:38.098Z,4.91
2023-02-22T03:16:16.550Z,4.88
2023-02-22T03:18:56.918Z,4.86
2023-02-22T03:21:35.724Z,4.84
2023-02-22T03:24:15.986Z,4.80
2023-02-22T03:26:52.516Z,4.76
2023-02-22T03:29:24.969Z,4.72
2023-02-22T03:32:03.651Z,4.66
2023-02-22T03:34:43.801Z,4.60
2023-02-22T03:37:18.056Z,4.54
2023-02-22T03:39:50.553Z,4.51
2023-02-22T03:42:23.454Z,4.47
2023-02-22T03:45:02.752Z,4.45
2023-02-22T03:47:39.959Z,4.42
2023-02-22T03:50:15.263Z,4.37
2023-02-22T03:52:47.390Z,4.34
2023-02-22T03:55:23.733Z,4.30
2023-02-22T03:57:56.106Z,4.28
2023-02-22T04:00:26.482Z,4.27
2023-02-22T04:02:54.919Z,4.24
2023-02-22T04:05:25.983Z,4.23
2023-02-22T04:07:55.511Z,4.22
2023-02-22T04:10:24.761Z,4.20
2023-02-22T04:12:53.257Z,4.18
2023-02-22T04:15:24.430Z,4.16
2023-02-22T04:17:57.025Z,4.16
2023-02-22T04:20:27.019Z,4.16
2023-02-22T04:23:02.123Z,4.15
2023-02-22T04:25:38.716Z,4.14
2023-02-22T04:28:13.368Z,4.11
2023-02-22T04:31:03.617Z,4.11
2023-02-22T04:33:40.569Z,4.11
2023-02-22T04:36:25.615Z,4.14
2023-02-22T04:38:55.108Z,4.14
2023-02-22T04:41:25.511Z,4.16
2023-02-22T04:43:54.391Z,4.18
2023-02-22T04:46:31.831Z,4.21
2023-02-22T04:49:01.860Z,4.23
2023-02-22T04:51:35.854Z,4.24
2023-02-22T04:54:08.185Z,4.25
2023-02-22T04:56:38.914Z,4.24
2023-02-22T04:59:14.478Z,4.24
2023-02-22T05:01:46.281Z,4.24
2023-02-22T05:04:14.919Z,4.23
2023-02-22T05:06:50.272Z,4.22
2023-02-22T05:09:26.451Z,4.21
2023-02-22T05:11:57.394Z,4.20
2023-02-22T05:14:26.849Z,4.20
2023-02-22T05:16:56.174Z,4.20
2023-02-22T05:19:39.279Z,4.20
2023-02-22T05:22:09.192Z,4.19
2023-02-22T05:24:38.503Z,4.18
2023-02-22T05:27:08.289Z,4.17
2023-02-22T05:29:38.720Z,4.18
2023-02-22T05:32:09.864Z,4.17
2023-02-22T05:34:38.639Z,4.17
2023-02-22T05:37:08.896Z,4.15
2023-02-22T05:39:37.345Z,4.14
2023-02-22T05:42:07.235Z,4.14
2023-02-22T05:44:35.773Z,4.11
2023-02-22T05:47:04.605Z,4.10
2023-02-22T05:49:33.124Z,4.08
2023-02-22T05:52:01.662Z,4.04
2023-02-22T05:54:31.744Z,4.03
2023-02-22T05:57:00.230Z,4.01
2023-02-22T05:59:44.675Z,4.00
2023-02-22T06:02:20.993Z,4.00
2023-02-22T06:04:50.836Z,3.98
2023-02-22T06:07:19.519Z,3.98
2023-02-22T06:09:49.292Z,3.97
2023-02-22T06:12:17.644Z,3.98
2023-02-22T06:14:46.573Z,3.96
2023-02-22T06:17:16.320Z,3.97
2023-02-22T06:19:44.768Z,3.95
2023-02-22T06:22:18.051Z,3.95
2023-02-22T06:24:55.574Z,3.94
2023-02-22T06:27:33.208Z,3.95
2023-02-22T06:30:04.045Z,3.93
2023-02-22T06:32:33.244Z,3.93
2023-02-22T06:35:01.885Z,3.92
2023-02-22T06:37:30.384Z,3.92
2023-02-22T06:40:04.961Z,3.91
2023-02-22T06:42:33.737Z,3.93
2023-02-22T06:45:02.347Z,3.93
2023-02-22T06:47:30.952Z,3.92
2023-02-22T06:50:00.938Z,3.93
2023-02-22T06:52:29.317Z,3.94
2023-02-22T06:54:57.709Z,3.95
2023-02-22T06:57:27.497Z,3.97
2023-02-22T06:59:56.101Z,3.99
2023-02-22T07:02:24.587Z,4.00
2023-02-22T07:04:53.241Z,4.03
2023-02-22T07:07:28.027Z,4.06
2023-02-22T07:09:56.533Z,4.08
2023-02-22T07:12:24.952Z,4.11
2023-02-22T07:14:57.264Z,4.15
2023-02-22T07:17:26.084Z,4.18
2023-02-22T07:19:54.496Z,4.22
2023-02-22T07:22:23.400Z,4.28
2023-02-22T07:24:52.142Z,4.30
2023-02-22T07:27:20.575Z,4.37
2023-02-22T07:29:49.832Z,4.41
2023-02-22T07:32:19.916Z,4.47
2023-02-22T07:34:51.398Z,4.54
2023-02-22T07:37:21.232Z,4.61
2023-02-22T07:39:49.583Z,4.67
2023-02-22T07:42:18.182Z,4.74
2023-02-22T07:44:47.690Z,4.81
2023-02-22T07:47:18.061Z,4.88
2023-02-22T07:49:48.250Z,4.96
2023-02-22T07:52:18.241Z,5.02
2023-02-22T07:54:52.778Z,5.10
2023-02-22T07:57:21.675Z,5.18
2023-02-22T07:59:53.780Z,5.26
2023-02-22T08:02:23.451Z,5.34
2023-02-22T08:04:57.989Z,5.41
2023-02-22T08:07:34.655Z,5.48
2023-02-22T08:10:08.619Z,5.58
2023-02-22T08:12:40.913Z,5.68
2023-02-22T08:15:21.636Z,5.76
2023-02-22T08:17:59.419Z,5.88
2023-02-22T08:20:32.127Z,5.96
2023-02-22T08:23:08.135Z,6.05
2023-02-22T08:25:38.038Z,6.17
2023-02-22T08:28:16.105Z,6.24
2023-02-22T08:30:48.894Z,6.36
2023-02-22T08:33:25.414Z,6.45
2023-02-22T08:36:04.550Z,6.55
2023-02-22T08:38:38.777Z,6.65
2023-02-22T08:41:15.793Z,6.77
2023-02-22T08:43:55.423Z,6.88
2023-02-22T08:46:26.342Z,6.98
2023-02-22T08:49:00.218Z,7.08
2023-02-22T08:51:31.233Z,7.19
2023-02-22T08:54:01.487Z,7.28
2023-02-22T08:56:34.186Z,7.39
2023-02-22T08:59:06.198Z,7.47
2023-02-22T09:01:46.240Z,7.56
2023-02-22T09:04:16.116Z,7.65
2023-02-22T09:06:52.713Z,7.74
2023-02-22T09:09:22.831Z,7.84
2023-02-22T09:12:07.532Z,7.92
2023-02-22T09:14:43.371Z,8.01
2023-02-22T09:17:15.295Z,8.11
2023-02-22T09:19:51.035Z,8.20
2023-02-22T09:22:24.739Z,8.29
2023-02-22T09:25:15.898Z,8.39
2023-02-22T09:27:58.233Z,8.50
2023-02-22T09:30:38.143Z,8.60
2023-02-22T09:33:14.818Z,8.69
2023-02-22T09:35:53.142Z,8.78
2023-02-22T09:38:31.692Z,8.88
2023-02-22T09:41:16.688Z,8.97
2023-02-22T09:44:03.976Z,9.09
2023-02-22T09:46:46.161Z,9.17
2023-02-22T09:49:34.080Z,9.26
2023-02-22T09:52:16.316Z,9.34
2023-02-22T09:54:56.308Z,9.42
2023-02-22T09:57:42.904Z,9.49
2023-02-22T10:00:18.616Z,9.57
2023-02-22T10:02:58.819Z,9.64
2023-02-22T10:05:35.175Z,9.70
2023-02-22T10:08:09.557Z,9.78
2023-02-22T10:10:47.156Z,9.83
2023-02-22T10:13:28.974Z,9.91
2023-02-22T10:16:06.553Z,9.98
2023-02-22T10:19:01.077Z,10.04
2023-02-22T10:21:47.834Z,10.09
2023-02-22T10:24:32.686Z,10.17
2023-02-22T10:27:05.387Z,10.23
2023-02-22T10:29:41.272Z,10.29
2023-02-22T10:32:23.476Z,10.35
2023-02-22T10:35:02.397Z,10.43
2023-02-22T10:38:14.995Z,10.51
2023-02-22T10:41:19.882Z,10.57
2023-02-22T10:47:33.428Z,10.75
2023-02-22T10:50:21.903Z,10.82
2023-02-22T10:52:55.157Z,10.89
2023-02-22T10:55:23.991Z,10.95
2023-02-22T10:58:04.543Z,11.01
2023-02-22T11:00:37.743Z,11.09
2023-02-22T11:03:17.795Z,11.17
2023-02-22T11:05:46.433Z,11.27
2023-02-22T11:08:17.291Z,11.35
2023-02-22T11:10:45.825Z,11.42
2023-02-22T11:13:32.672Z,11.53
2023-02-22T11:16:20.670Z,11.58
2023-02-22T11:18:50.025Z,11.64
2023-02-22T11:21:27.421Z,11.73
2023-02-22T11:24:03.813Z,11.81
2023-02-22T11:26:39.376Z,11.91
2023-02-22T11:29:15.587Z,12.00
2023-02-22T11:31:50.674Z,12.09
2023-02-22T11:34:38.285Z,12.19
2023-02-22T11:37:18.887Z,12.29
2023-02-22T11:39:47.554Z,12.36
2023-02-22T11:42:25.665Z,12.44
2023-02-22T11:45:12.433Z,12.49
2023-02-22T11:47:57.362Z,12.57
2023-02-22T11:50:30.535Z,12.63
2023-02-22T11:53:22.543Z,12.70
2023-02-22T11:56:06.362Z,12.79
2023-02-22T11:58:45.677Z,12.87
2023-02-22T12:01:23.658Z,12.93
2023-02-22T12:04:38.326Z,13.02
2023-02-22T12:07:24.053Z,13.10
2023-02-22T12:09:59.612Z,13.17
2023-02-22T12:12:40.739Z,13.24
2023-02-22T12:15:32.957Z,13.32
2023-02-22T12:18:11.473Z,13.40
2023-02-22T12:20:56.672Z,13.48
2023-02-22T12:23:38.569Z,13.55
2023-02-22T12:26:23.810Z,13.66
2023-02-22T12:29:07.212Z,13.72
2023-02-22T12:31:40.895Z,13.81
2023-02-22T12:34:22.124Z,13.87
2023-02-22T12:37:02.646Z,13.92
2023-02-22T12:39:52.811Z,13.96
2023-02-22T12:42:50.664Z,14.01
2023-02-22T12:45:37.200Z,14.05
2023-02-22T12:48:24.723Z,14.07
2023-02-22T12:50:59.092Z,14.10
2023-02-22T12:53:35.685Z,14.11
2023-02-22T12:56:24.048Z,14.15
2023-02-22T12:58:59.850Z,14.17
2023-02-22T13:01:34.058Z,14.21
2023-02-22T13:04:19.493Z,14.26
2023-02-22T13:07:11.562Z,14.34
2023-02-22T13:09:59.494Z,14.39
2023-02-22T13:12:44.176Z,14.46
2023-02-22T13:15:25.192Z,14.50
2023-02-22T13:18:04.390Z,14.54
2023-02-22T13:20:39.275Z,14.59
2023-02-22T13:23:19.999Z,14.64
2023-02-22T13:25:58.074Z,14.70
2023-02-22T13:28:34.291Z,14.77
2023-02-22T13:31:20.911Z,14.84
2023-02-22T13:34:16.424Z,14.88
2023-02-22T13:37:02.310Z,14.86
2023-02-22T13:39:45.982Z,14.86
2023-02-22T13:42:49.108Z,14.87
2023-02-22T13:45:52.961Z,14.86
2023-02-22T13:48:57.138Z,14.87
2023-02-22T13:51:42.635Z,14.85
2023-02-22T13:54:19.606Z,14.83
2023-02-22T13:56:50.838Z,14.83
2023-02-22T13:59:40.076Z,14.84
2023-02-22T14:02:28.880Z,14.86
2023-02-22T14:04:57.427Z,14.91
2023-02-22T14:07:56.187Z,15.00
2023-02-22T14:10:47.817Z,15.10
2023-02-22T14:13:18.170Z,15.17
2023-02-22T14:16:20.888Z,15.25
2023-02-22T14:18:51.867Z,15.32
2023-02-22T14:21:22.050Z,15.38
2023-02-22T14:23:52.109Z,15.42
2023-02-22T14:26:27.802Z,15.46
2023-02-22T14:28:59.011Z,15.47
2023-02-22T14:31:36.525Z,15.44
2023-02-22T14:34:10.049Z,15.44
2023-02-22T14:36:52.524Z,15.43
2023-02-22T14:39:26.945Z,15.41
2023-02-22T14:42:01.861Z,15.40
2023-02-22T14:44:36.996Z,15.36
2023-02-22T14:47:11.286Z,15.32
2023-02-22T14:49:43.046Z,15.31
2023-02-22T14:52:20.766Z,15.29
2023-02-22T14:55:05.353Z,15.28
2023-02-22T14:57:44.721Z,15.26
2023-02-22T15:00:22.685Z,15.29
2023-02-22T15:02:57.258Z,15.32
2023-02-22T15:05:30.168Z,15.34
2023-02-22T15:08:01.312Z,15.34
2023-02-22T15:10:42.789Z,15.37
2023-02-22T15:13:20.617Z,15.41
2023-02-22T15:15:55.827Z,15.40
2023-02-22T15:18:30.354Z,15.43
2023-02-22T15:21:00.135Z,15.43
2023-02-22T15:23:33.248Z,15.45
2023-02-22T15:26:03.116Z,15.45
2023-02-22T15:28:32.202Z,15.45
2023-02-22T15:31:27.987Z,15.41
2023-02-22T15:33:58.772Z,15.36
2023-02-22T15:36:30.984Z,15.31
2023-02-22T15:38:59.511Z,15.26
2023-02-22T15:41:31.726Z,15.21
2023-02-22T15:44:08.012Z,15.17
2023-02-22T15:46:42.822Z,15.08
2023-02-22T15:49:25.892Z,15.01
2023-02-22T15:52:07.360Z,14.97
2023-02-22T15:54:45.475Z,14.91
2023-02-22T15:57:19.069Z,14.83
2023-02-22T15:59:53.204Z,14.78
2023-02-22T16:02:31.422Z,14.71
2023-02-22T16:05:06.751Z,14.64
2023-02-22T16:07:41.984Z,14.58
2023-02-22T16:10:22.321Z,14.54
2023-02-22T16:12:52.543Z,14.49
2023-02-22T16:15:21.026Z,14.41
2023-02-22T16:18:01.929Z,14.35
2023-02-22T16:20:35.422Z,14.29
2023-02-22T16:23:24.218Z,14.24
2023-02-22T16:26:19.809Z,14.17
2023-02-22T16:28:51.954Z,14.11
2023-02-22T16:31:22.297Z,14.05
2023-02-22T16:33:51.238Z,14.00
2023-02-22T16:36:24.456Z,13.94
2023-02-22T16:38:53.737Z,13.90
2023-02-22T16:41:22.191Z,13.85
2023-02-22T16:43:51.821Z,13.81
2023-02-22T16:46:20.816Z,13.75
2023-02-22T16:48:49.531Z,13.72
2023-02-22T16:51:24.302Z,13.69
2023-02-22T16:53:55.083Z,13.63
2023-02-22T16:56:30.795Z,13.57
2023-02-22T16:59:10.012Z,13.50
2023-02-22T17:01:38.618Z,13.44
2023-02-22T17:04:15.460Z,13.38
2023-02-22T17:06:45.622Z,13.33
2023-02-22T17:09:15.326Z,13.24
2023-02-22T17:11:44.845Z,13.17
2023-02-22T17:14:18.735Z,13.13
2023-02-22T17:16:47.847Z,13.08
2023-02-22T17:19:17.845Z,13.02
2023-02-22T17:21:48.196Z,12.97
2023-02-22T17:24:20.058Z,12.88
2023-02-22T17:26:48.497Z,12.80
2023-02-22T17:29:17.862Z,12.69
2023-02-22T17:31:48.895Z,12.62
2023-02-22T17:34:17.892Z,12.55
2023-02-22T17:36:47.711Z,12.50
2023-02-22T17:39:16.362Z,12.45
2023-02-22T17:41:44.683Z,12.39
2023-02-22T17:44:13.261Z,12.33
2023-02-22T17:46:41.884Z,12.27
2023-02-22T17:49:13.872Z,12.20
2023-02-22T17:51:42.574Z,12.14
2023-02-22T17:54:12.257Z,12.10
2023-02-22T17:56:42.454Z,12.06
2023-02-22T17:59:11.037Z,12.02
2023-02-22T18:01:39.799Z,11.98
2023-02-22T18:04:08.323Z,11.94
2023-02-22T18:06:38.052Z,11.89
2023-02-22T18:09:10.370Z,11.85
2023-02-22T18:11:41.253Z,11.83
2023-02-22T18:14:10.839Z,11.78
2023-02-22T18:16:39.456Z,11.75
2023-02-22T18:19:08.158Z,11.72
2023-02-22T18:21:38.824Z,11.68
2023-02-22T18:24:08.182Z,11.63
2023-02-22T18:26:39.039Z,11.60
2023-02-22T18:29:12.270Z,11.59
2023-02-22T18:31:40.799Z,11.58
2023-02-22T18:34:12.931Z,11.58
2023-02-22T18:36:41.401Z,11.57
2023-02-22T18:39:18.979Z,11.55
2023-02-22T18:41:48.748Z,11.56
2023-02-22T18:44:19.279Z,11.56
2023-02-22T18:46:47.687Z,11.57
2023-02-22T18:49:17.262Z,11.57
2023-02-22T18:51:46.064Z,11.57
2023-02-22T18:54:14.487Z,11.56
2023-02-22T18:56:42.891Z,11.58
2023-02-22T18:59:13.194Z,11.57
2023-02-22T19:01:48.819Z,11.55
2023-02-22T19:04:18.271Z,11.53
2023-02-22T19:06:48.448Z,11.50
2023-02-22T19:09:17.191Z,11.47
2023-02-22T19:11:46.710Z,11.42
2023-02-22T19:14:16.491Z,11.39
2023-02-22T19:16:47.052Z,11.34
2023-02-22T19:19:20.752Z,11.29
2023-02-22T19:21:49.598Z,11.24
2023-02-22T19:24:20.528Z,11.21
2023-02-22T19:26:50.776Z,11.16
2023-02-22T19:29:22.182Z,11.13
2023-02-22T19:31:53.556Z,11.09
2023-02-22T19:34:24.584Z,11.06
2023-02-22T19:36:53.460Z,11.03
2023-02-22T19:41:55.856Z,10.97
2023-02-22T19:44:25.412Z,10.95
2023-02-22T19:46:56.276Z,10.93
2023-02-22T19:49:27.699Z,10.91
2023-02-22T19:51:58.075Z,10.88
2023-02-22T19:54:26.685Z,10.85
2023-02-22T19:56:57.026Z,10.83
2023-02-22T19:59:25.468Z,10.81
2023-02-22T20:01:56.329Z,10.77
2023-02-22T20:04:26.422Z,10.75
2023-02-22T20:06:57.532Z,10.70
2023-02-22T20:09:32.020Z,10.68
2023-02-22T20:12:00.510Z,10.67
2023-02-22T20:14:30.502Z,10.65
2023-02-22T20:17:00.931Z,10.61
2023-02-22T20:19:29.867Z,10.58
2023-02-22T20:22:00.243Z,10.56
2023-02-22T20:24:28.751Z,10.54
2023-02-22T20:26:58.241Z,10.51
2023-02-22T20:29:30.410Z,10.48
2023-02-22T20:32:01.779Z,10.46
2023-02-22T20:34:32.571Z,10.43
2023-02-22T20:37:02.221Z,10.40
2023-02-22T20:39:30.858Z,10.39
2023-02-22T20:42:00.862Z,10.36
2023-02-22T20:44:29.451Z,10.34
2023-02-22T20:46:57.833Z,10.31
2023-02-22T20:49:27.744Z,10.29
2023-02-22T20:51:56.326Z,10.26
2023-02-22T20:54:24.965Z,10.24
2023-02-22T20:56:53.455Z,10.19
2023-02-22T20:59:22.388Z,10.19
2023-02-22T21:01:53.047Z,10.15
2023-02-22T21:04:23.201Z,10.14
2023-02-22T21:06:53.184Z,10.15
2023-02-22T21:09:23.872Z,10.14
2023-02-22T21:11:52.364Z,10.13
2023-02-22T21:14:22.530Z,10.13
2023-02-22T21:16:52.908Z,10.13
2023-02-22T21:19:26.412Z,10.13
2023-02-22T21:21:58.107Z,10.12
2023-02-22T21:24:28.415Z,10.12
2023-02-22T21:26:58.516Z,10.15
2023-02-22T21:29:27.636Z,10.14
2023-02-22T21:31:56.446Z,10.18
2023-02-22T21:34:25.802Z,10.19
2023-02-22T21:36:54.577Z,10.18
2023-02-22T21:39:28.599Z,10.18
2023-02-22T21:42:00.469Z,10.18
2023-02-22T21:44:29.822Z,10.19
2023-02-22T21:46:58.310Z,10.20
2023-02-22T21:49:26.724Z,10.20
2023-02-22T21:51:55.145Z,10.21
2023-02-22T21:54:24.929Z,10.22
2023-02-22T21:56:54.417Z,10.22
2023-02-22T21:59:23.929Z,10.21
2023-02-22T22:01:55.768Z,10.20
2023-02-22T22:04:27.521Z,10.19
2023-02-22T22:06:58.628Z,10.18
2023-02-22T22:09:32.889Z,10.15
2023-02-22T22:12:04.996Z,10.11
2023-02-22T22:14:34.608Z,10.06
2023-02-22T22:17:05.808Z,10.03
2023-02-22T22:19:39.042Z,10.01
2023-02-22T22:22:07.852Z,10.00
2023-02-22T22:24:37.966Z,10.01
2023-02-22T22:27:09.730Z,9.99
2023-02-22T22:29:38.891Z,9.99
2023-02-22T22:32:07.604Z,9.97
2023-02-22T22:34:37.806Z,9.96
2023-02-22T22:37:06.467Z,9.95
2023-02-22T22:39:34.888Z,9.94
2023-02-22T22:42:04.755Z,9.94
2023-02-22T22:44:41.781Z,9.94
2023-02-22T22:47:12.228Z,9.95
2023-02-22T22:49:42.566Z,9.96
2023-02-22T22:52:13.919Z,9.96
2023-02-22T22:54:43.980Z,9.94
2023-02-22T22:57:14.508Z,9.94
2023-02-22T22:59:43.130Z,9.93
2023-02-22T23:02:11.851Z,9.93
2023-02-22T23:04:40.357Z,9.94
2023-02-22T23:07:08.766Z,9.94
2023-02-22T23:09:38.946Z,9.95
2023-02-22T23:12:09.604Z,9.96
2023-02-22T23:14:44.023Z,9.97
2023-02-22T23:17:15.825Z,9.98
2023-02-22T23:19:46.059Z,9.99
2023-02-22T23:22:15.161Z,9.98
2023-02-22T23:24:44.974Z,9.99
2023-02-22T23:27:13.788Z,9.99
2023-02-22T23:29:46.491Z,9.98
2023-02-22T23:32:15.102Z,9.98
2023-02-22T23:34:43.939Z,9.97
2023-02-22T23:37:14.012Z,9.97
2023-02-22T23:39:42.692Z,9.95
2023-02-22T23:42:11.091Z,9.94
2023-02-22T23:44:40.219Z,9.94
2023-02-22T23:47:10.057Z,9.94
2023-02-22T23:49:38.993Z,9.92
2023-02-22T23:52:09.374Z,9.92
2023-02-22T23:54:43.834Z,9.90
2023-02-22T23:57:12.276Z,9.89
2023-02-22T23:59:40.793Z,9.89
